createdAt,value
2023-03-20T00:02:46.410Z,8.70
2023-03-20T00:06:12.944Z,8.70
2023-03-20T00:09:34.556Z,8.60
2023-03-20T00:12:56.312Z,8.50
2023-03-20T00:16:19.446Z,8.50
2023-03-20T00:19:41.099Z,8.50
2023-03-20T00:23:02.676Z,8.60
2023-03-20T00:26:25.310Z,8.60
2023-03-20T00:29:47.072Z,8.70
2023-03-20T00:33:10.194Z,8.70
2023-03-20T00:36:31.782Z,8.70
2023-03-20T00:39:53.352Z,8.70
2023-03-20T00:43:14.949Z,8.70
2023-03-20T00:46:38.516Z,8.60
2023-03-20T00:50:01.503Z,8.50
2023-03-20T00:53:23.099Z,8.50
2023-03-20T00:56:45.923Z,8.40
2023-03-20T01:00:08.657Z,8.40
2023-03-20T01:03:30.255Z,8.30
2023-03-20T01:06:53.152Z,8.30
2023-03-20T01:10:14.801Z,8.40
2023-03-20T01:13:38.256Z,8.40
2023-03-20T01:16:59.829Z,8.40
2023-03-20T01:20:22.643Z,8.50
2023-03-20T01:23:45.677Z,8.50
2023-03-20T01:27:11.631Z,8.50
2023-03-20T01:30:33.321Z,8.50
2023-03-20T01:33:54.953Z,8.40
2023-03-20T01:37:18.077Z,8.40
2023-03-20T01:40:47.181Z,8.40
2023-03-20T01:44:16.612Z,8.50
2023-03-20T01:47:38.187Z,8.50
2023-03-20T01:50:59.775Z,8.60
2023-03-20T01:54:22.985Z,8.60
2023-03-20T01:57:46.089Z,8.60
2023-03-20T02:01:10.212Z,8.60
2023-03-20T02:04:34.622Z,8.60
2023-03-20T02:08:00.933Z,8.60
2023-03-20T02:11:24.162Z,8.60
2023-03-20T02:14:47.561Z,8.70
2023-03-20T02:18:09.160Z,8.70
2023-03-20T02:21:39.790Z,8.70
2023-03-20T02:25:16.583Z,8.70
2023-03-20T02:28:47.786Z,8.70
2023-03-20T02:32:33.452Z,8.70
2023-03-20T02:36:11.304Z,8.70
2023-03-20T02:39:43.736Z,8.70
2023-03-20T02:43:11.189Z,8.70
2023-03-20T02:46:36.391Z,8.70
2023-03-20T02:50:02.753Z,8.70
2023-03-20T02:53:30.922Z,8.70
2023-03-20T02:56:58.640Z,8.60
2023-03-20T03:00:24.438Z,8.60
2023-03-20T03:03:48.406Z,8.60
2023-03-20T03:07:10.831Z,8.60
2023-03-20T03:10:34.561Z,8.60
2023-03-20T03:13:58.642Z,8.60
2023-03-20T03:17:23.242Z,8.70
2023-03-20T03:20:45.310Z,8.60
2023-03-20T03:24:07.015Z,8.70
2023-03-20T03:27:31.665Z,8.60
2023-03-20T03:30:55.514Z,8.70
2023-03-20T03:34:18.005Z,8.70
2023-03-20T03:37:42.986Z,8.60
2023-03-20T03:41:07.821Z,8.60
2023-03-20T03:44:31.693Z,8.70
2023-03-20T03:47:56.757Z,8.70
2023-03-20T03:51:22.428Z,8.60
2023-03-20T03:54:45.323Z,8.70
2023-03-20T03:58:08.953Z,8.60
2023-03-20T04:01:31.444Z,8.60
2023-03-20T04:04:55.081Z,8.60
2023-03-20T04:08:16.712Z,8.60
2023-03-20T04:11:38.296Z,8.60
2023-03-20T04:15:02.481Z,8.60
2023-03-20T04:18:24.813Z,8.60
2023-03-20T04:21:47.823Z,8.60
2023-03-20T04:25:14.781Z,8.50
2023-03-20T04:28:36.448Z,8.50
2023-03-20T04:31:58.027Z,8.60
2023-03-20T04:35:19.710Z,8.50
2023-03-20T04:38:42.684Z,8.50
2023-03-20T04:42:04.957Z,8.50
2023-03-20T04:45:26.593Z,8.50
2023-03-20T04:48:48.194Z,8.50
2023-03-20T04:52:09.820Z,8.50
2023-03-20T04:55:32.898Z,8.40
2023-03-20T04:58:54.562Z,8.40
2023-03-20T05:02:16.126Z,8.40
2023-03-20T05:05:37.823Z,8.30
2023-03-20T05:08:59.513Z,8.30
2023-03-20T05:12:22.440Z,8.30
2023-03-20T05:15:44.008Z,8.30
2023-03-20T05:19:05.649Z,8.30
2023-03-20T05:22:28.951Z,8.30
2023-03-20T05:25:51.005Z,8.30
2023-03-20T05:29:13.968Z,8.30
2023-03-20T05:32:35.572Z,8.30
2023-03-20T05:35:57.283Z,8.20
2023-03-20T05:39:18.912Z,8.30
2023-03-20T05:42:40.517Z,8.30
2023-03-20T05:46:03.558Z,8.30
2023-03-20T05:49:25.173Z,8.30
2023-03-20T05:52:47.007Z,8.30
2023-03-20T05:56:09.028Z,8.40
2023-03-20T05:59:30.629Z,8.50
2023-03-20T06:02:53.658Z,8.50
2023-03-20T06:06:15.317Z,8.60
2023-03-20T06:09:36.921Z,8.60
2023-03-20T06:12:58.551Z,8.70
2023-03-20T06:16:20.174Z,8.70
2023-03-20T06:19:43.095Z,8.80
2023-03-20T06:23:04.714Z,8.80
2023-03-20T06:26:26.280Z,8.90
2023-03-20T06:29:47.914Z,9.00
2023-03-20T06:33:09.675Z,9.10
2023-03-20T06:36:32.678Z,9.20
2023-03-20T06:39:54.273Z,9.20
2023-03-20T06:43:15.882Z,9.30
2023-03-20T06:46:37.490Z,9.40
2023-03-20T06:49:59.129Z,9.50
2023-03-20T06:53:22.100Z,9.60
2023-03-20T06:56:43.699Z,9.80
2023-03-20T07:00:05.949Z,10.00
2023-03-20T07:03:27.606Z,10.20
2023-03-20T07:06:49.219Z,10.50
2023-03-20T07:10:12.716Z,10.60
2023-03-20T07:13:34.307Z,10.80
2023-03-20T07:16:55.933Z,11.20
2023-03-20T07:20:17.591Z,11.60
2023-03-20T07:23:39.200Z,12.00
2023-03-20T07:27:02.160Z,12.20
2023-03-20T07:30:23.764Z,12.30
2023-03-20T07:33:45.336Z,12.40
2023-03-20T07:37:06.915Z,12.50
2023-03-20T07:40:28.564Z,12.40
2023-03-20T07:43:51.562Z,12.10
2023-03-20T07:47:13.160Z,11.50
2023-03-20T07:50:34.842Z,11.10
2023-03-20T07:53:56.426Z,11.10
2023-03-20T07:57:18.024Z,11.20
2023-03-20T08:00:40.936Z,11.70
2023-03-20T08:04:02.765Z,12.00
2023-03-20T08:07:24.446Z,12.20
2023-03-20T08:10:46.432Z,12.10
2023-03-20T08:14:08.106Z,12.20
2023-03-20T08:17:31.143Z,12.60
2023-03-20T08:20:52.822Z,12.90
2023-03-20T08:24:14.556Z,13.20
2023-03-20T08:27:36.204Z,13.50
2023-03-20T08:30:57.849Z,13.70
2023-03-20T08:34:22.905Z,13.50
2023-03-20T08:37:45.597Z,13.10
2023-03-20T08:41:07.866Z,12.50
2023-03-20T08:44:29.495Z,12.20
2023-03-20T08:47:51.194Z,12.20
2023-03-20T08:51:14.144Z,12.10
2023-03-20T08:54:35.967Z,12.20
2023-03-20T08:57:57.935Z,12.50
2023-03-20T09:01:19.544Z,12.60
2023-03-20T09:04:41.163Z,12.50
2023-03-20T09:08:04.641Z,12.80
2023-03-20T09:11:26.323Z,12.90
2023-03-20T09:14:48.154Z,13.20
2023-03-20T09:18:09.870Z,13.50
2023-03-20T09:21:31.459Z,13.80
2023-03-20T09:24:54.503Z,14.30
2023-03-20T09:28:16.168Z,14.40
2023-03-20T09:31:37.796Z,14.80
2023-03-20T09:34:59.472Z,14.90
2023-03-20T09:38:21.104Z,14.70
2023-03-20T09:41:56.663Z,14.70
2023-03-20T09:45:22.768Z,14.60
2023-03-20T09:48:48.559Z,14.50
2023-03-20T09:52:16.232Z,14.40
2023-03-20T09:55:39.647Z,14.40
2023-03-20T09:59:04.614Z,14.50
2023-03-20T10:02:32.960Z,14.70
2023-03-20T10:05:57.914Z,14.70
2023-03-20T10:09:22.087Z,14.70
2023-03-20T10:12:53.468Z,14.70
2023-03-20T10:16:19.556Z,14.60
2023-03-20T10:19:43.364Z,14.60
2023-03-20T10:23:06.681Z,14.20
2023-03-20T10:26:28.644Z,14.10
2023-03-20T10:29:54.622Z,13.70
2023-03-20T10:33:23.738Z,13.40
2023-03-20T10:36:51.133Z,13.30
2023-03-20T10:40:21.482Z,13.20
2023-03-20T10:43:44.237Z,13.20
2023-03-20T10:47:07.238Z,13.10
2023-03-20T10:50:32.045Z,13.00
2023-03-20T10:53:55.338Z,13.10
2023-03-20T10:57:20.155Z,13.30
2023-03-20T11:00:41.767Z,13.80
2023-03-20T11:04:03.493Z,14.10
2023-03-20T11:07:27.613Z,14.20
2023-03-20T11:10:58.352Z,14.40
2023-03-20T11:14:20.951Z,14.50
2023-03-20T11:17:42.535Z,14.40
2023-03-20T11:21:04.375Z,14.10
2023-03-20T11:24:30.059Z,14.10
2023-03-20T11:27:54.229Z,14.20
2023-03-20T11:31:16.952Z,14.10
2023-03-20T11:34:38.735Z,14.20
2023-03-20T11:38:12.774Z,14.70
2023-03-20T11:41:41.615Z,14.90
2023-03-20T11:45:04.785Z,14.70
2023-03-20T11:48:36.027Z,14.60
2023-03-20T11:52:00.289Z,14.70
2023-03-20T11:55:26.680Z,15.00
2023-03-20T11:58:53.745Z,14.90
2023-03-20T12:02:19.221Z,14.60
2023-03-20T12:05:40.913Z,14.60
2023-03-20T12:09:05.023Z,14.80
2023-03-20T12:12:34.299Z,14.70
2023-03-20T12:15:59.469Z,14.70
2023-03-20T12:19:25.821Z,14.70
2023-03-20T12:22:50.686Z,14.70
2023-03-20T12:26:13.251Z,14.70
2023-03-20T12:29:37.299Z,14.70
2023-03-20T12:33:02.974Z,15.00
2023-03-20T12:36:27.895Z,15.60
2023-03-20T12:39:50.457Z,16.10
2023-03-20T12:43:14.433Z,16.30
2023-03-20T12:46:40.201Z,16.00
2023-03-20T12:50:07.740Z,15.60
2023-03-20T12:53:35.183Z,15.50
2023-03-20T12:57:06.520Z,15.20
2023-03-20T13:00:31.621Z,14.70
2023-03-20T13:04:03.233Z,14.30
2023-03-20T13:07:32.362Z,14.00
2023-03-20T13:10:57.058Z,13.70
2023-03-20T13:14:22.449Z,13.50
2023-03-20T13:17:46.422Z,13.40
2023-03-20T13:21:10.386Z,13.20
2023-03-20T13:24:41.038Z,13.10
2023-03-20T13:28:06.391Z,13.10
2023-03-20T13:31:33.383Z,13.20
2023-03-20T13:35:06.216Z,13.30
2023-03-20T13:38:30.465Z,13.50
2023-03-20T13:41:54.188Z,13.50
2023-03-20T13:45:21.456Z,13.50
2023-03-20T13:48:43.628Z,13.70
2023-03-20T13:52:07.926Z,13.80
2023-03-20T13:55:32.309Z,13.80
2023-03-20T13:59:01.957Z,14.10
2023-03-20T14:02:31.503Z,14.30
2023-03-20T14:05:53.141Z,14.60
2023-03-20T14:09:28.270Z,14.70
2023-03-20T14:12:50.113Z,14.50
2023-03-20T14:16:15.034Z,14.40
2023-03-20T14:19:37.506Z,14.20
2023-03-20T14:22:59.464Z,14.00
2023-03-20T14:26:22.564Z,14.00
2023-03-20T14:29:44.146Z,13.80
2023-03-20T14:33:23.629Z,13.50
2023-03-20T14:37:00.339Z,13.50
2023-03-20T14:40:23.553Z,13.50
2023-03-20T14:43:54.342Z,13.40
2023-03-20T14:47:20.894Z,13.50
2023-03-20T14:50:51.197Z,13.60
2023-03-20T14:54:30.736Z,13.60
2023-03-20T14:57:56.892Z,13.60
2023-03-20T15:01:24.903Z,13.70
2023-03-20T15:04:46.755Z,13.70
2023-03-20T15:08:10.741Z,13.80
2023-03-20T15:11:33.190Z,13.70
2023-03-20T15:14:55.678Z,13.70
2023-03-20T15:18:17.256Z,13.60
2023-03-20T15:21:39.915Z,13.50
2023-03-20T15:25:02.958Z,13.40
2023-03-20T15:28:25.722Z,13.30
2023-03-20T15:32:02.848Z,13.20
2023-03-20T15:35:32.888Z,13.30
2023-03-20T15:39:01.657Z,13.20
2023-03-20T15:42:25.038Z,13.10
2023-03-20T15:45:46.852Z,13.10
2023-03-20T15:49:16.611Z,13.10
2023-03-20T15:52:40.662Z,13.00
2023-03-20T15:56:17.242Z,13.00
2023-03-20T15:59:42.378Z,12.90
2023-03-20T16:03:05.185Z,12.80
2023-03-20T16:06:26.842Z,12.80
2023-03-20T16:09:49.556Z,12.80
2023-03-20T16:13:12.506Z,12.80
2023-03-20T16:16:35.538Z,12.90
2023-03-20T16:19:57.204Z,12.80
2023-03-20T16:23:32.008Z,12.80
2023-03-20T16:26:53.960Z,12.70
2023-03-20T16:30:18.005Z,12.70
2023-03-20T16:33:41.037Z,12.80
2023-03-20T16:37:06.727Z,12.80
2023-03-20T16:40:29.839Z,12.90
2023-03-20T16:43:51.896Z,12.80
2023-03-20T16:47:17.341Z,12.70
2023-03-20T16:50:41.127Z,12.70
2023-03-20T16:54:02.742Z,12.60
2023-03-20T16:57:25.550Z,12.40
2023-03-20T17:00:50.346Z,12.30
2023-03-20T17:04:14.298Z,12.10
2023-03-20T17:07:37.308Z,11.90
2023-03-20T17:11:02.907Z,11.70
2023-03-20T17:14:24.589Z,11.60
2023-03-20T17:17:46.457Z,11.40
2023-03-20T17:21:09.937Z,11.30
2023-03-20T17:24:32.900Z,11.10
2023-03-20T17:27:54.536Z,11.00
2023-03-20T17:31:16.870Z,10.90
2023-03-20T17:34:38.901Z,10.80
2023-03-20T17:38:00.471Z,10.70
2023-03-20T17:41:23.657Z,10.70
2023-03-20T17:44:45.289Z,10.60
2023-03-20T17:48:11.715Z,10.60
2023-03-20T17:51:33.320Z,10.60
2023-03-20T17:54:55.071Z,10.60
2023-03-20T17:58:19.198Z,10.60
2023-03-20T18:01:40.978Z,10.60
2023-03-20T18:05:02.681Z,10.60
2023-03-20T18:08:24.375Z,10.60
2023-03-20T18:11:45.968Z,10.50
2023-03-20T18:15:09.937Z,10.50
2023-03-20T18:18:31.541Z,10.50
2023-03-20T18:21:53.128Z,10.40
2023-03-20T18:25:14.856Z,10.30
2023-03-20T18:28:36.474Z,10.20
2023-03-20T18:31:59.423Z,10.20
2023-03-20T18:35:21.116Z,10.20
2023-03-20T18:38:43.470Z,10.30
2023-03-20T18:42:05.124Z,10.30
2023-03-20T18:45:27.705Z,10.40
2023-03-20T18:48:51.597Z,10.40
2023-03-20T18:52:13.270Z,10.40
2023-03-20T18:55:34.959Z,10.50
2023-03-20T18:58:56.607Z,10.50
2023-03-20T19:02:18.173Z,10.50
2023-03-20T19:05:41.118Z,10.50
2023-03-20T19:09:03.848Z,10.40
2023-03-20T19:12:25.466Z,10.40
2023-03-20T19:15:48.016Z,10.30
2023-03-20T19:19:12.509Z,10.40
2023-03-20T19:22:36.356Z,10.30
2023-03-20T19:25:58.189Z,10.30
2023-03-20T19:29:19.846Z,10.30
2023-03-20T19:32:41.437Z,10.20
2023-03-20T19:36:04.348Z,10.20
2023-03-20T19:39:27.636Z,10.10
2023-03-20T19:43:01.489Z,10.00
2023-03-20T19:46:39.220Z,10.00
2023-03-20T19:50:01.558Z,10.00
2023-03-20T19:53:24.265Z,10.00
2023-03-20T19:56:47.891Z,10.00
2023-03-20T20:03:52.749Z,9.90
2023-03-20T20:08:00.677Z,9.90
2023-03-20T20:10:57.379Z,9.90
2023-03-20T20:14:23.471Z,9.80
2023-03-20T20:17:45.870Z,9.70
2023-03-20T20:22:06.346Z,9.70
2023-03-20T20:24:51.722Z,9.70
2023-03-20T20:28:14.422Z,9.70
2023-03-20T20:31:37.512Z,9.70
2023-03-20T20:38:50.624Z,9.60
2023-03-20T20:42:13.220Z,9.40
2023-03-20T20:45:34.966Z,9.30
2023-03-20T20:48:58.056Z,9.20
2023-03-20T20:52:19.660Z,9.10
2023-03-20T20:55:41.768Z,9.00
2023-03-20T20:59:03.640Z,9.00
2023-03-20T21:02:25.690Z,8.90
2023-03-20T21:05:48.856Z,8.90
2023-03-20T21:09:10.477Z,8.80
2023-03-20T21:12:40.225Z,8.80
2023-03-20T21:16:07.511Z,8.80
2023-03-20T21:19:29.339Z,8.80
2023-03-20T21:22:52.277Z,8.90
2023-03-20T21:26:14.194Z,8.90
2023-03-20T21:29:35.769Z,9.00
2023-03-20T21:32:57.366Z,9.10
2023-03-20T21:36:19.051Z,9.10
2023-03-20T21:39:41.979Z,9.20
2023-03-20T21:43:03.712Z,9.30
2023-03-20T21:46:58.796Z,9.30
2023-03-20T22:01:49.294Z,9.30
2023-03-20T22:05:50.394Z,9.30
2023-03-20T22:09:30.753Z,9.20
2023-03-20T22:13:07.356Z,9.20
2023-03-20T22:16:48.957Z,9.20
2023-03-20T22:20:38.659Z,9.20
2023-03-20T22:27:52.746Z,9.10
2023-03-20T22:31:40.779Z,9.10
2023-03-20T22:45:42.733Z,9.20
2023-03-20T22:49:09.005Z,9.20
2023-03-20T22:52:45.887Z,9.20
2023-03-20T22:56:10.458Z,9.20
2023-03-20T22:59:32.134Z,9.20
2023-03-20T23:02:57.404Z,9.10
2023-03-20T23:06:25.975Z,9.20
2023-03-20T23:09:48.921Z,9.10
2023-03-20T23:13:10.526Z,9.10
2023-03-20T23:16:32.206Z,9.10
2023-03-20T23:20:05.123Z,9.10
2023-03-20T23:23:32.347Z,9.10
2023-03-20T23:26:55.273Z,9.10
2023-03-20T23:30:17.083Z,9.10
2023-03-20T23:33:39.043Z,9.10
2023-03-20T23:37:00.758Z,9.10
2023-03-20T23:40:22.374Z,9.10
2023-03-20T23:43:45.330Z,9.00
2023-03-20T23:47:19.395Z,9.00
2023-03-20T23:50:52.086Z,9.00
2023-03-20T23:54:14.762Z,8.90
2023-03-20T23:57:36.325Z,8.90
